Главная страница
METAR-TAF:

METAR-TAF

Аэропорты :

Эрста-Волда, Норвегия

широта: 62-11N, долгота: 006-04E, высота над уровнем моря: 7 м

Текущие метеонаблюдения

Эта сводка был подготовлена 59 минут назад, в 13:50 UTC
Ветер 2 Узел переменных направлений
Температура -4°C
Влажность 100%
Давление 1021 hPa
Видимость 10 км и более
Нет облачности ниже 1500 м, и нет кучево-дождевой облачности

METAR: ENOV 151350Z VRB02KT CAVOK M04/M04 Q1021 RMK WIND 2175FT VRB01KT

Время: 15:49 (14:49 UTC)


TAF: отсутствует

Метеонаблюдения и прогнозы для более 4000 аэропортов (сводки METAR и TAF).

Имеющиеся станции представлены на карте желтыми и красными точками.

Чтобы увидеть название станции, наведите на нее мышь.

Затем щелкните, чтобы увидеть метеонаблюдения и метеопрогнозы.

Управление картой: чтобы увеличить масштаб, щелкните зеленые кнопки с черным крестиком; чтобы уменьшить масштаб, щелкните зеленую кнопку с тире; для просмотра соседних карт щелкайте зеленые стрелки.


METAR-TAF: